Terminal Aerodrome Forecast
Issued by NWS

Home | Current Version | Previous Version | Text Only | Print | Product List | Glossary On
Versions: 1 2 3 4 5 6 7 8 9 10 11 12 13 14 15 16
000
FTUS43 KILX 061128
TAFBMI
TAF
KBMI 061128Z 0612/0712 18007KT 4SM BR SKC
     FM061400 19011KT P6SM SCT030
     FM061900 19014G22KT P6SM SCT040
     FM070200 20012KT P6SM VCTS SCT040CB BKN250
     FM070400 19012KT 5SM -TSRA BR BKN040CB
     FM070700 20014KT 5SM BR VCSH OVC025=

USA.gov is the U.S. government's official web portal to all federal, state and local government web resources and services.